sensor_id;sensor_type;location;lat;lon;timestamp;P1;durP1;ratioP1;P2;durP2;ratioP2
12681;SDS011;6405;59.208;18.216;2024-01-27T00:01:45;2.83;;;1.90;;
12681;SDS011;6405;59.208;18.216;2024-01-27T00:04:10;4.50;;;2.20;;
12681;SDS011;6405;59.208;18.216;2024-01-27T00:06:36;4.70;;;2.27;;
12681;SDS011;6405;59.208;18.216;2024-01-27T00:09:02;2.50;;;1.77;;
12681;SDS011;6405;59.208;18.216;2024-01-27T00:11:28;4.23;;;2.03;;
12681;SDS011;6405;59.208;18.216;2024-01-27T00:13:54;4.57;;;1.87;;
12681;SDS011;6405;59.208;18.216;2024-01-27T00:16:19;6.90;;;2.17;;
12681;SDS011;6405;59.208;18.216;2024-01-27T00:18:45;3.33;;;2.20;;
12681;SDS011;6405;59.208;18.216;2024-01-27T00:21:11;4.90;;;2.83;;
12681;SDS011;6405;59.208;18.216;2024-01-27T00:23:37;4.57;;;2.27;;
12681;SDS011;6405;59.208;18.216;2024-01-27T00:26:02;2.73;;;1.80;;
12681;SDS011;6405;59.208;18.216;2024-01-27T00:28:28;3.97;;;2.50;;
12681;SDS011;6405;59.208;18.216;2024-01-27T00:30:54;8.47;;;3.10;;
12681;SDS011;6405;59.208;18.216;2024-01-27T00:33:21;4.37;;;3.00;;
12681;SDS011;6405;59.208;18.216;2024-01-27T00:35:47;4.53;;;2.87;;
12681;SDS011;6405;59.208;18.216;2024-01-27T00:38:13;5.63;;;2.67;;
12681;SDS011;6405;59.208;18.216;2024-01-27T00:40:38;5.90;;;3.20;;
12681;SDS011;6405;59.208;18.216;2024-01-27T00:43:04;5.30;;;2.97;;
12681;SDS011;6405;59.208;18.216;2024-01-27T00:45:30;4.00;;;2.27;;
12681;SDS011;6405;59.208;18.216;2024-01-27T00:47:57;5.40;;;2.83;;
12681;SDS011;6405;59.208;18.216;2024-01-27T00:50:23;4.07;;;2.50;;
12681;SDS011;6405;59.208;18.216;2024-01-27T00:52:48;5.83;;;2.80;;
12681;SDS011;6405;59.208;18.216;2024-01-27T00:55:14;4.23;;;2.60;;
12681;SDS011;6405;59.208;18.216;2024-01-27T00:57:40;5.27;;;3.20;;
12681;SDS011;6405;59.208;18.216;2024-01-27T01:00:06;5.80;;;3.10;;
12681;SDS011;6405;59.208;18.216;2024-01-27T01:02:33;4.60;;;2.90;;
12681;SDS011;6405;59.208;18.216;2024-01-27T01:05:00;3.20;;;2.40;;
12681;SDS011;6405;59.208;18.216;2024-01-27T01:07:28;5.87;;;3.37;;
12681;SDS011;6405;59.208;18.216;2024-01-27T01:09:54;4.53;;;2.87;;
12681;SDS011;6405;59.208;18.216;2024-01-27T01:12:23;5.33;;;3.10;;
12681;SDS011;6405;59.208;18.216;2024-01-27T01:14:52;5.50;;;3.10;;
12681;SDS011;6405;59.208;18.216;2024-01-27T01:17:18;4.73;;;2.87;;
12681;SDS011;6405;59.208;18.216;2024-01-27T01:19:43;4.47;;;2.87;;
12681;SDS011;6405;59.208;18.216;2024-01-27T01:22:09;4.60;;;2.93;;
12681;SDS011;6405;59.208;18.216;2024-01-27T01:24:35;5.77;;;2.70;;
12681;SDS011;6405;59.208;18.216;2024-01-27T01:27:01;4.83;;;3.20;;
12681;SDS011;6405;59.208;18.216;2024-01-27T01:29:28;6.67;;;3.10;;
12681;SDS011;6405;59.208;18.216;2024-01-27T01:31:53;6.00;;;3.30;;
12681;SDS011;6405;59.208;18.216;2024-01-27T01:34:19;8.00;;;3.80;;
12681;SDS011;6405;59.208;18.216;2024-01-27T01:36:45;6.73;;;3.37;;
12681;SDS011;6405;59.208;18.216;2024-01-27T01:39:11;6.90;;;4.00;;
12681;SDS011;6405;59.208;18.216;2024-01-27T01:41:40;8.97;;;4.07;;
12681;SDS011;6405;59.208;18.216;2024-01-27T01:44:06;7.00;;;3.87;;
12681;SDS011;6405;59.208;18.216;2024-01-27T01:46:32;6.90;;;4.17;;
12681;SDS011;6405;59.208;18.216;2024-01-27T01:48:58;7.00;;;4.37;;
12681;SDS011;6405;59.208;18.216;2024-01-27T01:51:25;8.57;;;4.50;;
12681;SDS011;6405;59.208;18.216;2024-01-27T01:53:51;8.03;;;3.90;;
12681;SDS011;6405;59.208;18.216;2024-01-27T01:56:22;8.93;;;4.40;;
12681;SDS011;6405;59.208;18.216;2024-01-27T01:58:48;6.73;;;4.03;;
12681;SDS011;6405;59.208;18.216;2024-01-27T02:01:15;9.20;;;4.37;;
12681;SDS011;6405;59.208;18.216;2024-01-27T02:03:51;8.17;;;4.60;;
12681;SDS011;6405;59.208;18.216;2024-01-27T02:06:20;7.47;;;3.97;;
12681;SDS011;6405;59.208;18.216;2024-01-27T02:08:46;6.90;;;3.87;;
12681;SDS011;6405;59.208;18.216;2024-01-27T02:11:12;6.87;;;4.23;;
12681;SDS011;6405;59.208;18.216;2024-01-27T02:13:38;8.77;;;4.20;;
12681;SDS011;6405;59.208;18.216;2024-01-27T02:16:03;7.63;;;4.10;;
12681;SDS011;6405;59.208;18.216;2024-01-27T02:18:29;6.77;;;3.90;;
12681;SDS011;6405;59.208;18.216;2024-01-27T02:20:55;8.23;;;3.90;;
12681;SDS011;6405;59.208;18.216;2024-01-27T02:23:21;8.13;;;3.90;;
12681;SDS011;6405;59.208;18.216;2024-01-27T02:25:46;6.37;;;3.93;;
12681;SDS011;6405;59.208;18.216;2024-01-27T02:28:12;5.17;;;3.30;;
12681;SDS011;6405;59.208;18.216;2024-01-27T02:30:38;7.80;;;3.70;;
12681;SDS011;6405;59.208;18.216;2024-01-27T02:33:04;7.60;;;4.23;;
12681;SDS011;6405;59.208;18.216;2024-01-27T02:35:30;7.50;;;4.43;;
12681;SDS011;6405;59.208;18.216;2024-01-27T02:37:56;8.87;;;4.63;;
12681;SDS011;6405;59.208;18.216;2024-01-27T02:40:21;9.37;;;4.40;;
12681;SDS011;6405;59.208;18.216;2024-01-27T02:42:47;9.30;;;4.47;;
12681;SDS011;6405;59.208;18.216;2024-01-27T02:45:13;9.23;;;4.50;;
12681;SDS011;6405;59.208;18.216;2024-01-27T02:47:39;10.77;;;5.30;;
12681;SDS011;6405;59.208;18.216;2024-01-27T02:50:05;8.93;;;4.47;;
12681;SDS011;6405;59.208;18.216;2024-01-27T02:52:34;7.63;;;4.47;;
12681;SDS011;6405;59.208;18.216;2024-01-27T02:55:00;9.00;;;4.87;;
12681;SDS011;6405;59.208;18.216;2024-01-27T02:57:26;10.10;;;5.43;;
12681;SDS011;6405;59.208;18.216;2024-01-27T02:59:52;9.03;;;4.70;;
12681;SDS011;6405;59.208;18.216;2024-01-27T03:02:17;8.97;;;5.03;;
12681;SDS011;6405;59.208;18.216;2024-01-27T03:04:43;7.63;;;4.80;;
12681;SDS011;6405;59.208;18.216;2024-01-27T03:07:09;9.33;;;4.80;;
12681;SDS011;6405;59.208;18.216;2024-01-27T03:09:35;9.80;;;5.50;;
12681;SDS011;6405;59.208;18.216;2024-01-27T03:12:01;9.20;;;4.87;;
12681;SDS011;6405;59.208;18.216;2024-01-27T03:14:27;10.70;;;5.43;;
12681;SDS011;6405;59.208;18.216;2024-01-27T03:16:54;9.40;;;4.97;;
12681;SDS011;6405;59.208;18.216;2024-01-27T03:19:19;11.63;;;5.53;;
12681;SDS011;6405;59.208;18.216;2024-01-27T03:21:45;8.40;;;5.00;;
12681;SDS011;6405;59.208;18.216;2024-01-27T03:24:11;8.67;;;4.87;;
12681;SDS011;6405;59.208;18.216;2024-01-27T03:26:37;6.73;;;3.93;;
12681;SDS011;6405;59.208;18.216;2024-01-27T03:29:03;6.07;;;3.97;;
12681;SDS011;6405;59.208;18.216;2024-01-27T03:31:34;5.87;;;3.90;;
12681;SDS011;6405;59.208;18.216;2024-01-27T03:34:00;5.87;;;3.30;;
12681;SDS011;6405;59.208;18.216;2024-01-27T03:36:27;6.07;;;2.83;;
12681;SDS011;6405;59.208;18.216;2024-01-27T03:38:53;4.83;;;3.03;;
12681;SDS011;6405;59.208;18.216;2024-01-27T03:41:20;4.23;;;2.47;;
12681;SDS011;6405;59.208;18.216;2024-01-27T03:43:46;2.87;;;1.87;;
12681;SDS011;6405;59.208;18.216;2024-01-27T03:46:12;2.83;;;2.13;;
12681;SDS011;6405;59.208;18.216;2024-01-27T03:48:38;2.87;;;1.87;;
12681;SDS011;6405;59.208;18.216;2024-01-27T03:51:03;2.83;;;2.07;;
12681;SDS011;6405;59.208;18.216;2024-01-27T03:53:29;2.50;;;1.73;;
12681;SDS011;6405;59.208;18.216;2024-01-27T03:55:55;2.27;;;1.67;;
12681;SDS011;6405;59.208;18.216;2024-01-27T03:58:27;2.43;;;1.83;;
12681;SDS011;6405;59.208;18.216;2024-01-27T04:00:53;2.77;;;1.90;;
12681;SDS011;6405;59.208;18.216;2024-01-27T04:03:31;2.57;;;1.77;;
12681;SDS011;6405;59.208;18.216;2024-01-27T04:05:56;2.63;;;2.00;;
12681;SDS011;6405;59.208;18.216;2024-01-27T04:08:22;2.97;;;2.10;;
12681;SDS011;6405;59.208;18.216;2024-01-27T04:10:48;2.67;;;1.60;;
12681;SDS011;6405;59.208;18.216;2024-01-27T04:13:15;2.77;;;2.07;;
12681;SDS011;6405;59.208;18.216;2024-01-27T04:15:40;2.70;;;2.00;;
12681;SDS011;6405;59.208;18.216;2024-01-27T04:18:06;2.50;;;2.13;;
12681;SDS011;6405;59.208;18.216;2024-01-27T04:20:37;1.73;;;1.40;;
12681;SDS011;6405;59.208;18.216;2024-01-27T04:23:02;1.90;;;1.57;;
12681;SDS011;6405;59.208;18.216;2024-01-27T04:25:29;1.27;;;1.03;;
12681;SDS011;6405;59.208;18.216;2024-01-27T04:27:54;2.03;;;1.70;;
12681;SDS011;6405;59.208;18.216;2024-01-27T04:30:20;1.93;;;1.50;;
12681;SDS011;6405;59.208;18.216;2024-01-27T04:32:46;2.00;;;1.80;;
12681;SDS011;6405;59.208;18.216;2024-01-27T04:35:14;1.97;;;1.77;;
12681;SDS011;6405;59.208;18.216;2024-01-27T04:37:40;2.53;;;1.83;;
12681;SDS011;6405;59.208;18.216;2024-01-27T04:40:06;1.70;;;1.60;;
12681;SDS011;6405;59.208;18.216;2024-01-27T04:42:33;1.53;;;1.40;;
12681;SDS011;6405;59.208;18.216;2024-01-27T04:44:59;2.30;;;1.63;;
12681;SDS011;6405;59.208;18.216;2024-01-27T04:47:25;1.67;;;1.47;;
12681;SDS011;6405;59.208;18.216;2024-01-27T04:49:51;1.20;;;0.90;;
12681;SDS011;6405;59.208;18.216;2024-01-27T04:52:16;1.83;;;1.47;;
12681;SDS011;6405;59.208;18.216;2024-01-27T04:54:42;1.50;;;1.40;;
12681;SDS011;6405;59.208;18.216;2024-01-27T04:57:08;1.53;;;1.30;;
12681;SDS011;6405;59.208;18.216;2024-01-27T04:59:35;1.30;;;1.20;;
12681;SDS011;6405;59.208;18.216;2024-01-27T05:02:00;1.40;;;1.27;;
12681;SDS011;6405;59.208;18.216;2024-01-27T05:04:26;1.40;;;1.30;;
12681;SDS011;6405;59.208;18.216;2024-01-27T05:06:52;2.20;;;1.33;;
12681;SDS011;6405;59.208;18.216;2024-01-27T05:09:18;2.50;;;1.57;;
12681;SDS011;6405;59.208;18.216;2024-01-27T05:11:44;1.20;;;1.10;;
12681;SDS011;6405;59.208;18.216;2024-01-27T05:14:10;1.40;;;1.30;;
12681;SDS011;6405;59.208;18.216;2024-01-27T05:16:36;1.83;;;1.40;;
12681;SDS011;6405;59.208;18.216;2024-01-27T05:19:02;1.90;;;1.50;;
12681;SDS011;6405;59.208;18.216;2024-01-27T05:21:27;1.43;;;1.33;;
12681;SDS011;6405;59.208;18.216;2024-01-27T05:23:53;1.50;;;1.40;;
12681;SDS011;6405;59.208;18.216;2024-01-27T05:26:20;1.53;;;1.43;;
12681;SDS011;6405;59.208;18.216;2024-01-27T05:28:46;1.47;;;1.37;;
12681;SDS011;6405;59.208;18.216;2024-01-27T05:31:11;1.37;;;1.10;;
12681;SDS011;6405;59.208;18.216;2024-01-27T05:33:38;1.40;;;1.30;;
12681;SDS011;6405;59.208;18.216;2024-01-27T05:36:04;1.60;;;1.50;;
12681;SDS011;6405;59.208;18.216;2024-01-27T05:38:31;1.87;;;1.57;;
12681;SDS011;6405;59.208;18.216;2024-01-27T05:40:57;2.47;;;1.80;;
12681;SDS011;6405;59.208;18.216;2024-01-27T05:43:26;3.13;;;1.43;;
12681;SDS011;6405;59.208;18.216;2024-01-27T05:45:52;2.27;;;1.43;;
12681;SDS011;6405;59.208;18.216;2024-01-27T05:48:18;2.40;;;1.93;;
12681;SDS011;6405;59.208;18.216;2024-01-27T05:50:44;2.17;;;1.73;;
12681;SDS011;6405;59.208;18.216;2024-01-27T05:53:19;2.40;;;1.80;;
12681;SDS011;6405;59.208;18.216;2024-01-27T05:55:46;1.57;;;1.47;;
12681;SDS011;6405;59.208;18.216;2024-01-27T05:58:12;2.20;;;1.90;;
12681;SDS011;6405;59.208;18.216;2024-01-27T06:00:38;1.60;;;1.27;;
12681;SDS011;6405;59.208;18.216;2024-01-27T06:03:03;1.50;;;1.30;;
12681;SDS011;6405;59.208;18.216;2024-01-27T06:05:29;1.90;;;1.70;;
12681;SDS011;6405;59.208;18.216;2024-01-27T06:07:55;2.37;;;1.40;;
12681;SDS011;6405;59.208;18.216;2024-01-27T06:10:20;1.80;;;1.40;;
12681;SDS011;6405;59.208;18.216;2024-01-27T06:12:47;2.80;;;1.63;;
12681;SDS011;6405;59.208;18.216;2024-01-27T06:15:13;1.37;;;0.93;;
12681;SDS011;6405;59.208;18.216;2024-01-27T06:17:40;1.87;;;1.30;;
12681;SDS011;6405;59.208;18.216;2024-01-27T06:20:06;1.43;;;1.23;;
12681;SDS011;6405;59.208;18.216;2024-01-27T06:22:32;1.67;;;1.50;;
12681;SDS011;6405;59.208;18.216;2024-01-27T06:24:58;2.00;;;1.40;;
12681;SDS011;6405;59.208;18.216;2024-01-27T06:27:24;2.17;;;1.40;;
12681;SDS011;6405;59.208;18.216;2024-01-27T06:29:49;3.23;;;1.87;;
12681;SDS011;6405;59.208;18.216;2024-01-27T06:32:15;2.60;;;1.73;;
12681;SDS011;6405;59.208;18.216;2024-01-27T06:34:41;2.33;;;1.70;;
12681;SDS011;6405;59.208;18.216;2024-01-27T06:37:07;2.50;;;1.63;;
12681;SDS011;6405;59.208;18.216;2024-01-27T06:39:32;2.67;;;2.03;;
12681;SDS011;6405;59.208;18.216;2024-01-27T06:41:58;1.47;;;1.37;;
12681;SDS011;6405;59.208;18.216;2024-01-27T06:44:24;2.60;;;1.50;;
12681;SDS011;6405;59.208;18.216;2024-01-27T06:46:49;2.60;;;1.60;;
12681;SDS011;6405;59.208;18.216;2024-01-27T06:49:16;1.53;;;1.30;;
12681;SDS011;6405;59.208;18.216;2024-01-27T06:51:43;1.50;;;1.10;;
12681;SDS011;6405;59.208;18.216;2024-01-27T06:54:08;2.07;;;1.20;;
12681;SDS011;6405;59.208;18.216;2024-01-27T06:56:34;3.30;;;1.20;;
12681;SDS011;6405;59.208;18.216;2024-01-27T06:59:00;1.63;;;1.10;;
12681;SDS011;6405;59.208;18.216;2024-01-27T07:01:26;3.30;;;1.30;;
12681;SDS011;6405;59.208;18.216;2024-01-27T07:03:51;1.43;;;1.20;;
12681;SDS011;6405;59.208;18.216;2024-01-27T07:06:17;1.20;;;1.10;;
12681;SDS011;6405;59.208;18.216;2024-01-27T07:08:43;1.93;;;1.20;;
12681;SDS011;6405;59.208;18.216;2024-01-27T07:11:09;2.37;;;1.17;;
12681;SDS011;6405;59.208;18.216;2024-01-27T07:13:35;2.43;;;1.40;;
12681;SDS011;6405;59.208;18.216;2024-01-27T07:16:01;3.60;;;1.40;;
12681;SDS011;6405;59.208;18.216;2024-01-27T07:18:27;3.17;;;1.20;;
12681;SDS011;6405;59.208;18.216;2024-01-27T07:20:54;1.60;;;1.30;;
12681;SDS011;6405;59.208;18.216;2024-01-27T07:23:20;1.77;;;1.37;;
12681;SDS011;6405;59.208;18.216;2024-01-27T07:25:45;1.83;;;1.30;;
12681;SDS011;6405;59.208;18.216;2024-01-27T07:28:11;2.03;;;1.57;;
12681;SDS011;6405;59.208;18.216;2024-01-27T07:30:37;1.80;;;1.57;;
12681;SDS011;6405;59.208;18.216;2024-01-27T07:33:03;3.50;;;1.30;;
12681;SDS011;6405;59.208;18.216;2024-01-27T07:35:29;2.20;;;1.60;;
12681;SDS011;6405;59.208;18.216;2024-01-27T07:37:56;2.87;;;1.43;;
12681;SDS011;6405;59.208;18.216;2024-01-27T07:40:22;1.70;;;1.40;;
12681;SDS011;6405;59.208;18.216;2024-01-27T07:42:48;1.60;;;1.30;;
12681;SDS011;6405;59.208;18.216;2024-01-27T07:45:14;2.00;;;1.37;;
12681;SDS011;6405;59.208;18.216;2024-01-27T07:47:40;3.23;;;1.20;;
12681;SDS011;6405;59.208;18.216;2024-01-27T07:50:06;1.53;;;1.37;;
12681;SDS011;6405;59.208;18.216;2024-01-27T07:52:32;3.67;;;1.63;;
12681;SDS011;6405;59.208;18.216;2024-01-27T07:54:58;1.73;;;1.20;;
12681;SDS011;6405;59.208;18.216;2024-01-27T07:57:23;3.93;;;1.83;;
12681;SDS011;6405;59.208;18.216;2024-01-27T07:59:49;2.47;;;1.20;;
12681;SDS011;6405;59.208;18.216;2024-01-27T08:02:15;4.10;;;1.60;;
12681;SDS011;6405;59.208;18.216;2024-01-27T08:04:41;1.87;;;1.50;;
12681;SDS011;6405;59.208;18.216;2024-01-27T08:07:06;3.40;;;1.20;;
12681;SDS011;6405;59.208;18.216;2024-01-27T08:09:35;2.97;;;1.33;;
12681;SDS011;6405;59.208;18.216;2024-01-27T08:12:01;2.90;;;1.93;;
12681;SDS011;6405;59.208;18.216;2024-01-27T08:14:27;2.50;;;1.27;;
12681;SDS011;6405;59.208;18.216;2024-01-27T08:16:56;1.90;;;1.23;;
12681;SDS011;6405;59.208;18.216;2024-01-27T08:19:23;2.77;;;1.20;;
12681;SDS011;6405;59.208;18.216;2024-01-27T08:21:49;3.07;;;1.30;;
12681;SDS011;6405;59.208;18.216;2024-01-27T08:24:15;2.90;;;1.20;;
12681;SDS011;6405;59.208;18.216;2024-01-27T08:26:41;4.40;;;1.53;;
12681;SDS011;6405;59.208;18.216;2024-01-27T08:29:10;1.30;;;0.53;;
12681;SDS011;6405;59.208;18.216;2024-01-27T08:31:35;2.77;;;1.30;;
12681;SDS011;6405;59.208;18.216;2024-01-27T08:34:03;2.60;;;1.00;;
12681;SDS011;6405;59.208;18.216;2024-01-27T08:36:29;2.07;;;1.23;;
12681;SDS011;6405;59.208;18.216;2024-01-27T08:38:55;2.10;;;1.43;;
12681;SDS011;6405;59.208;18.216;2024-01-27T08:41:22;4.77;;;1.30;;
12681;SDS011;6405;59.208;18.216;2024-01-27T08:43:48;2.20;;;0.93;;
12681;SDS011;6405;59.208;18.216;2024-01-27T08:46:13;3.57;;;1.37;;
12681;SDS011;6405;59.208;18.216;2024-01-27T08:48:42;4.50;;;1.37;;
12681;SDS011;6405;59.208;18.216;2024-01-27T08:51:09;12.97;;;2.30;;
12681;SDS011;6405;59.208;18.216;2024-01-27T08:53:35;5.40;;;1.90;;
12681;SDS011;6405;59.208;18.216;2024-01-27T08:56:01;6.50;;;1.80;;
12681;SDS011;6405;59.208;18.216;2024-01-27T08:58:27;4.67;;;1.60;;
12681;SDS011;6405;59.208;18.216;2024-01-27T09:00:52;6.17;;;1.77;;
12681;SDS011;6405;59.208;18.216;2024-01-27T09:03:18;3.87;;;1.93;;
12681;SDS011;6405;59.208;18.216;2024-01-27T09:05:47;6.60;;;1.70;;
12681;SDS011;6405;59.208;18.216;2024-01-27T09:08:13;7.00;;;1.37;;
12681;SDS011;6405;59.208;18.216;2024-01-27T09:10:39;4.43;;;1.33;;
12681;SDS011;6405;59.208;18.216;2024-01-27T09:13:05;6.10;;;1.60;;
12681;SDS011;6405;59.208;18.216;2024-01-27T09:15:31;6.37;;;1.50;;
12681;SDS011;6405;59.208;18.216;2024-01-27T09:17:56;5.60;;;1.13;;
12681;SDS011;6405;59.208;18.216;2024-01-27T09:20:22;4.33;;;1.83;;
12681;SDS011;6405;59.208;18.216;2024-01-27T09:22:48;4.47;;;1.17;;
12681;SDS011;6405;59.208;18.216;2024-01-27T09:25:15;5.20;;;1.70;;
12681;SDS011;6405;59.208;18.216;2024-01-27T09:27:41;6.37;;;1.43;;
12681;SDS011;6405;59.208;18.216;2024-01-27T09:30:07;3.47;;;1.37;;
12681;SDS011;6405;59.208;18.216;2024-01-27T09:32:33;9.37;;;1.60;;
12681;SDS011;6405;59.208;18.216;2024-01-27T09:34:59;7.63;;;2.20;;
12681;SDS011;6405;59.208;18.216;2024-01-27T09:37:25;7.13;;;1.70;;
12681;SDS011;6405;59.208;18.216;2024-01-27T09:39:50;9.87;;;1.80;;
12681;SDS011;6405;59.208;18.216;2024-01-27T09:42:16;6.20;;;1.33;;
12681;SDS011;6405;59.208;18.216;2024-01-27T09:44:48;5.63;;;1.40;;
12681;SDS011;6405;59.208;18.216;2024-01-27T09:47:14;3.63;;;1.30;;
12681;SDS011;6405;59.208;18.216;2024-01-27T09:49:41;5.93;;;1.43;;
12681;SDS011;6405;59.208;18.216;2024-01-27T09:52:08;7.70;;;1.90;;
12681;SDS011;6405;59.208;18.216;2024-01-27T09:54:35;3.07;;;1.30;;
12681;SDS011;6405;59.208;18.216;2024-01-27T09:57:01;3.30;;;1.43;;
12681;SDS011;6405;59.208;18.216;2024-01-27T09:59:27;7.07;;;1.50;;
12681;SDS011;6405;59.208;18.216;2024-01-27T10:01:54;8.33;;;1.37;;
12681;SDS011;6405;59.208;18.216;2024-01-27T10:04:22;6.70;;;1.53;;
12681;SDS011;6405;59.208;18.216;2024-01-27T10:06:50;5.70;;;1.07;;
12681;SDS011;6405;59.208;18.216;2024-01-27T10:09:16;4.23;;;1.33;;
12681;SDS011;6405;59.208;18.216;2024-01-27T10:11:45;9.17;;;2.67;;
12681;SDS011;6405;59.208;18.216;2024-01-27T10:14:12;6.50;;;1.50;;
12681;SDS011;6405;59.208;18.216;2024-01-27T10:16:44;3.80;;;1.70;;
12681;SDS011;6405;59.208;18.216;2024-01-27T10:19:19;4.10;;;1.63;;
12681;SDS011;6405;59.208;18.216;2024-01-27T10:21:46;8.67;;;1.50;;
12681;SDS011;6405;59.208;18.216;2024-01-27T10:24:12;7.77;;;1.73;;
12681;SDS011;6405;59.208;18.216;2024-01-27T10:26:39;5.10;;;1.50;;
12681;SDS011;6405;59.208;18.216;2024-01-27T10:29:04;3.50;;;1.03;;
12681;SDS011;6405;59.208;18.216;2024-01-27T10:31:31;5.00;;;1.43;;
12681;SDS011;6405;59.208;18.216;2024-01-27T10:34:01;4.77;;;1.30;;
12681;SDS011;6405;59.208;18.216;2024-01-27T10:36:42;4.90;;;1.30;;
12681;SDS011;6405;59.208;18.216;2024-01-27T10:39:22;5.20;;;1.43;;
12681;SDS011;6405;59.208;18.216;2024-01-27T10:41:49;13.37;;;1.33;;
12681;SDS011;6405;59.208;18.216;2024-01-27T10:44:16;6.73;;;1.43;;
12681;SDS011;6405;59.208;18.216;2024-01-27T10:46:44;7.27;;;1.37;;
12681;SDS011;6405;59.208;18.216;2024-01-27T10:49:15;8.50;;;1.40;;
12681;SDS011;6405;59.208;18.216;2024-01-27T10:51:43;8.67;;;2.67;;
12681;SDS011;6405;59.208;18.216;2024-01-27T10:54:15;4.40;;;2.10;;
12681;SDS011;6405;59.208;18.216;2024-01-27T10:56:51;4.67;;;1.53;;
12681;SDS011;6405;59.208;18.216;2024-01-27T10:59:20;3.83;;;1.03;;
12681;SDS011;6405;59.208;18.216;2024-01-27T11:01:47;5.97;;;1.50;;
12681;SDS011;6405;59.208;18.216;2024-01-27T11:04:17;7.60;;;1.53;;
12681;SDS011;6405;59.208;18.216;2024-01-27T11:06:45;5.67;;;1.40;;
12681;SDS011;6405;59.208;18.216;2024-01-27T11:09:13;8.53;;;1.33;;
12681;SDS011;6405;59.208;18.216;2024-01-27T11:11:39;7.17;;;1.40;;
12681;SDS011;6405;59.208;18.216;2024-01-27T11:14:08;4.53;;;1.20;;
12681;SDS011;6405;59.208;18.216;2024-01-27T11:16:35;9.57;;;1.67;;
12681;SDS011;6405;59.208;18.216;2024-01-27T11:19:03;8.00;;;1.13;;
12681;SDS011;6405;59.208;18.216;2024-01-27T11:21:29;10.17;;;1.40;;
12681;SDS011;6405;59.208;18.216;2024-01-27T11:23:55;5.93;;;1.37;;
12681;SDS011;6405;59.208;18.216;2024-01-27T11:26:21;5.83;;;1.80;;
12681;SDS011;6405;59.208;18.216;2024-01-27T11:28:50;6.23;;;1.40;;
12681;SDS011;6405;59.208;18.216;2024-01-27T11:31:17;3.63;;;1.10;;
12681;SDS011;6405;59.208;18.216;2024-01-27T11:33:45;3.03;;;1.37;;
12681;SDS011;6405;59.208;18.216;2024-01-27T11:36:20;9.37;;;1.47;;
12681;SDS011;6405;59.208;18.216;2024-01-27T11:38:48;9.70;;;1.50;;
12681;SDS011;6405;59.208;18.216;2024-01-27T11:41:24;4.87;;;1.77;;
12681;SDS011;6405;59.208;18.216;2024-01-27T11:43:51;8.47;;;1.43;;
12681;SDS011;6405;59.208;18.216;2024-01-27T11:46:20;6.03;;;1.50;;
12681;SDS011;6405;59.208;18.216;2024-01-27T11:48:47;5.33;;;1.73;;
12681;SDS011;6405;59.208;18.216;2024-01-27T11:51:14;5.30;;;1.30;;
12681;SDS011;6405;59.208;18.216;2024-01-27T11:53:40;4.73;;;1.27;;
12681;SDS011;6405;59.208;18.216;2024-01-27T11:56:05;9.43;;;1.57;;
12681;SDS011;6405;59.208;18.216;2024-01-27T11:58:32;4.17;;;1.00;;
12681;SDS011;6405;59.208;18.216;2024-01-27T12:00:58;3.50;;;1.20;;
12681;SDS011;6405;59.208;18.216;2024-01-27T12:03:24;6.43;;;1.07;;
12681;SDS011;6405;59.208;18.216;2024-01-27T12:05:50;6.97;;;1.23;;
12681;SDS011;6405;59.208;18.216;2024-01-27T12:08:19;9.00;;;1.27;;
12681;SDS011;6405;59.208;18.216;2024-01-27T12:10:45;9.00;;;1.60;;
12681;SDS011;6405;59.208;18.216;2024-01-27T12:13:10;4.70;;;1.27;;
12681;SDS011;6405;59.208;18.216;2024-01-27T12:15:36;6.03;;;1.33;;
12681;SDS011;6405;59.208;18.216;2024-01-27T12:18:04;4.90;;;1.20;;
12681;SDS011;6405;59.208;18.216;2024-01-27T12:20:30;5.37;;;1.20;;
12681;SDS011;6405;59.208;18.216;2024-01-27T12:23:05;8.33;;;1.77;;
12681;SDS011;6405;59.208;18.216;2024-01-27T12:25:31;7.33;;;1.33;;
12681;SDS011;6405;59.208;18.216;2024-01-27T12:28:04;4.30;;;1.20;;
12681;SDS011;6405;59.208;18.216;2024-01-27T12:30:32;7.00;;;1.80;;
12681;SDS011;6405;59.208;18.216;2024-01-27T12:32:59;5.83;;;1.30;;
12681;SDS011;6405;59.208;18.216;2024-01-27T12:35:25;5.73;;;1.20;;
12681;SDS011;6405;59.208;18.216;2024-01-27T12:37:52;3.17;;;1.10;;
12681;SDS011;6405;59.208;18.216;2024-01-27T12:40:23;4.87;;;1.43;;
12681;SDS011;6405;59.208;18.216;2024-01-27T12:42:49;3.83;;;1.30;;
12681;SDS011;6405;59.208;18.216;2024-01-27T12:45:15;3.77;;;1.07;;
12681;SDS011;6405;59.208;18.216;2024-01-27T12:47:41;4.73;;;1.40;;
12681;SDS011;6405;59.208;18.216;2024-01-27T12:50:07;6.17;;;1.30;;
12681;SDS011;6405;59.208;18.216;2024-01-27T12:52:33;7.13;;;1.60;;
12681;SDS011;6405;59.208;18.216;2024-01-27T12:54:59;4.67;;;1.40;;
12681;SDS011;6405;59.208;18.216;2024-01-27T12:57:25;4.70;;;1.40;;
12681;SDS011;6405;59.208;18.216;2024-01-27T12:59:50;9.03;;;1.40;;
12681;SDS011;6405;59.208;18.216;2024-01-27T13:02:16;4.53;;;1.53;;
12681;SDS011;6405;59.208;18.216;2024-01-27T13:04:42;7.03;;;3.40;;
12681;SDS011;6405;59.208;18.216;2024-01-27T13:07:08;5.97;;;2.13;;
12681;SDS011;6405;59.208;18.216;2024-01-27T13:09:35;8.80;;;1.97;;
12681;SDS011;6405;59.208;18.216;2024-01-27T13:12:02;7.53;;;2.17;;
12681;SDS011;6405;59.208;18.216;2024-01-27T13:14:28;9.07;;;2.60;;
12681;SDS011;6405;59.208;18.216;2024-01-27T13:16:54;16.20;;;6.27;;
12681;SDS011;6405;59.208;18.216;2024-01-27T13:19:21;7.73;;;3.83;;
12681;SDS011;6405;59.208;18.216;2024-01-27T13:21:47;5.03;;;2.60;;
12681;SDS011;6405;59.208;18.216;2024-01-27T13:24:13;4.37;;;1.90;;
12681;SDS011;6405;59.208;18.216;2024-01-27T13:26:39;8.57;;;1.90;;
12681;SDS011;6405;59.208;18.216;2024-01-27T13:29:05;6.70;;;1.57;;
12681;SDS011;6405;59.208;18.216;2024-01-27T13:31:31;7.80;;;1.93;;
12681;SDS011;6405;59.208;18.216;2024-01-27T13:33:57;6.73;;;1.77;;
12681;SDS011;6405;59.208;18.216;2024-01-27T13:36:24;7.47;;;1.53;;
12681;SDS011;6405;59.208;18.216;2024-01-27T13:38:50;5.93;;;1.53;;
12681;SDS011;6405;59.208;18.216;2024-01-27T13:41:17;2.97;;;1.37;;
12681;SDS011;6405;59.208;18.216;2024-01-27T13:43:43;4.10;;;1.60;;
12681;SDS011;6405;59.208;18.216;2024-01-27T13:46:09;7.93;;;1.37;;
12681;SDS011;6405;59.208;18.216;2024-01-27T13:48:35;7.00;;;1.63;;
12681;SDS011;6405;59.208;18.216;2024-01-27T13:51:01;5.90;;;1.70;;
12681;SDS011;6405;59.208;18.216;2024-01-27T13:53:27;5.70;;;1.50;;
12681;SDS011;6405;59.208;18.216;2024-01-27T13:55:53;3.67;;;1.27;;
12681;SDS011;6405;59.208;18.216;2024-01-27T13:58:19;5.77;;;1.37;;
12681;SDS011;6405;59.208;18.216;2024-01-27T14:00:44;5.07;;;1.50;;
12681;SDS011;6405;59.208;18.216;2024-01-27T14:03:10;9.07;;;1.83;;
12681;SDS011;6405;59.208;18.216;2024-01-27T14:05:37;7.23;;;1.63;;
12681;SDS011;6405;59.208;18.216;2024-01-27T14:08:03;6.57;;;1.63;;
12681;SDS011;6405;59.208;18.216;2024-01-27T14:10:31;5.30;;;1.23;;
12681;SDS011;6405;59.208;18.216;2024-01-27T14:12:58;3.47;;;1.23;;
12681;SDS011;6405;59.208;18.216;2024-01-27T14:15:23;6.27;;;1.67;;
12681;SDS011;6405;59.208;18.216;2024-01-27T14:17:49;4.97;;;1.70;;
12681;SDS011;6405;59.208;18.216;2024-01-27T14:20:15;7.70;;;2.00;;
12681;SDS011;6405;59.208;18.216;2024-01-27T14:22:41;3.73;;;1.70;;
12681;SDS011;6405;59.208;18.216;2024-01-27T14:25:07;7.43;;;2.00;;
12681;SDS011;6405;59.208;18.216;2024-01-27T14:27:33;6.53;;;1.77;;
12681;SDS011;6405;59.208;18.216;2024-01-27T14:30:00;6.43;;;2.30;;
12681;SDS011;6405;59.208;18.216;2024-01-27T14:32:25;6.40;;;2.90;;
12681;SDS011;6405;59.208;18.216;2024-01-27T14:34:52;6.70;;;3.00;;
12681;SDS011;6405;59.208;18.216;2024-01-27T14:37:18;7.33;;;2.83;;
12681;SDS011;6405;59.208;18.216;2024-01-27T14:39:47;6.33;;;2.00;;
12681;SDS011;6405;59.208;18.216;2024-01-27T14:42:13;6.33;;;2.73;;
12681;SDS011;6405;59.208;18.216;2024-01-27T14:44:42;8.07;;;2.57;;